Time;durP1;ratioP1;P1;durP2;ratioP2;P2;SDS_P1;SDS_P2;PMS_P1;PMS_P2;Temp;Humidity;BMP_temperature;BMP_pressure;BME280_temperature;BME280_humidity;BME280_pressure;Samples;Min_cycle;Max_cycle;Signal;HPM_P1;HPM_P2
2022/04/19 00:05:42;;;;;;;17.1;23.7;;;;;;;4.3;63.2;98220;;;;
2022/04/19 00:15:41;;;;;;;17.1;23.7;;;;;;;4.3;65.8;98210;;;;
2022/04/19 00:25:42;;;;;;;17.1;23.7;;;;;;;4.3;64.8;98220;;;;
2022/04/19 00:36:42;;;;;;;21.8;28.2;;;;;;;4.2;66.4;98200;;;;
2022/04/19 00:46:42;;;;;;;21.8;28.2;;;;;;;4.1;65.2;98190;;;;
2022/04/19 00:57:41;;;;;;;21.8;28.2;;;;;;;4.1;65;98180;;;;
2022/04/19 01:07:42;;;;;;;21.1;31.6;;;;;;;4.1;64.6;98170;;;;
2022/04/19 01:18:41;;;;;;;21.1;31.6;;;;;;;4.2;63.4;98170;;;;
2022/04/19 01:28:42;;;;;;;21.1;31.6;;;;;;;4.2;64.2;98160;;;;
2022/04/19 01:38:42;;;;;;;17.2;25.6;;;;;;;4.1;64.9;98140;;;;
2022/04/19 01:49:42;;;;;;;17.2;25.6;;;;;;;4.3;63.3;98130;;;;
2022/04/19 02:00:42;;;;;;;17.2;25.6;;;;;;;4.4;61.1;98130;;;;
2022/04/19 02:11:41;;;;;;;14.2;21.1;;;;;;;4.5;62;98140;;;;
2022/04/19 02:22:42;;;;;;;14.2;21.1;;;;;;;4.4;63.7;98130;;;;
2022/04/19 02:32:42;;;;;;;14.2;21.1;;;;;;;4.6;60.4;98130;;;;
2022/04/19 02:43:41;;;;;;;12.1;16.5;;;;;;;4.8;59.4;98130;;;;
2022/04/19 02:53:43;;;;;;;12.1;16.5;;;;;;;4.9;58.9;98140;;;;
2022/04/19 03:03:43;;;;;;;7.4;10.4;;;;;;;5;58.5;98140;;;;
2022/04/19 03:14:42;;;;;;;7.4;10.4;;;;;;;5;59.3;98150;;;;
2022/04/19 03:35:41;;;;;;;9.9;13.2;;;;;;;4.9;60.4;98160;;;;
2022/04/19 03:45:41;;;;;;;9.9;13.2;;;;;;;4.9;60.4;98150;;;;
2022/04/19 03:55:41;;;;;;;9.9;13.2;;;;;;;4.8;63.3;98150;;;;
2022/04/19 04:05:42;;;;;;;6.4;9.8;;;;;;;4.8;64.3;98150;;;;
2022/04/19 04:15:42;;;;;;;6.4;9.8;;;;;;;4.6;66.7;98150;;;;
2022/04/19 04:26:42;;;;;;;6.4;9.8;;;;;;;4.7;65.9;98150;;;;
2022/04/19 04:36:42;;;;;;;4.6;8.3;;;;;;;4.6;67.8;98150;;;;
2022/04/19 04:56:42;;;;;;;4.6;8.3;;;;;;;4.8;68.2;98140;;;;
2022/04/19 05:07:42;;;;;;;5.5;9.9;;;;;;;4.7;69.7;98150;;;;
2022/04/19 05:18:42;;;;;;;5.5;9.9;;;;;;;5;68.9;98140;;;;
2022/04/19 05:28:42;;;;;;;5.5;9.9;;;;;;;5.1;69.1;98140;;;;
2022/04/19 05:38:42;;;;;;;5.6;9.1;;;;;;;5.4;68.6;98130;;;;
2022/04/19 05:48:42;;;;;;;5.6;9.1;;;;;;;5.5;68.3;98120;;;;
2022/04/19 05:58:42;;;;;;;5.6;9.1;;;;;;;5.8;67;98120;;;;
2022/04/19 06:09:42;;;;;;;6;11.8;;;;;;;6.4;64.7;98110;;;;
2022/04/19 06:19:42;;;;;;;6;11.8;;;;;;;6.7;60.1;98110;;;;
2022/04/19 06:29:42;;;;;;;6;11.8;;;;;;;6.6;58.6;98110;;;;
2022/04/19 06:40:42;;;;;;;5.6;13.3;;;;;;;6.7;60.2;98120;;;;
2022/04/19 06:50:42;;;;;;;5.6;13.3;;;;;;;6.7;60.6;98120;;;;
2022/04/19 07:01:43;;;;;;;5.6;13.3;;;;;;;6.7;60.9;98130;;;;
2022/04/19 07:11:42;;;;;;;5.2;8.1;;;;;;;6.9;60.1;98140;;;;
2022/04/19 07:33:42;;;;;;;6.3;12.3;;;;;;;7.4;55.5;98140;;;;
2022/04/19 07:43:44;;;;;;;6.3;12.3;;;;;;;8;54.9;98130;;;;
2022/04/19 07:53:42;;;;;;;6.3;12.3;;;;;;;8.7;52;98140;;;;
2022/04/19 08:03:42;;;;;;;7;11.7;;;;;;;9;50.3;98140;;;;
2022/04/19 08:13:42;;;;;;;7;11.7;;;;;;;9.5;49.5;98140;;;;
2022/04/19 08:23:42;;;;;;;7;11.7;;;;;;;9.3;48.9;98150;;;;
2022/04/19 08:34:42;;;;;;;18.7;23.4;;;;;;;9.2;53.7;98160;;;;
2022/04/19 08:44:42;;;;;;;18.7;23.4;;;;;;;9.1;54.4;98160;;;;
2022/04/19 09:05:42;;;;;;;191.2;216.6;;;;;;;8.3;59;98170;;;;
2022/04/19 09:16:42;;;;;;;191.2;216.6;;;;;;;8.1;61.9;98180;;;;
2022/04/19 09:27:42;;;;;;;191.2;216.6;;;;;;;9.1;60.9;98180;;;;
2022/04/19 09:37:42;;;;;;;18.9;21.8;;;;;;;9.9;56.1;98180;;;;
2022/04/19 09:48:43;;;;;;;18.9;21.8;;;;;;;10.5;54.7;98190;;;;
2022/04/19 09:58:42;;;;;;;18.9;21.8;;;;;;;10.4;55.5;98200;;;;
2022/04/19 10:09:42;;;;;;;41.2;45.6;;;;;;;10.3;55.7;98200;;;;
2022/04/19 10:19:42;;;;;;;41.2;45.6;;;;;;;10.1;55.1;98210;;;;
2022/04/19 10:30:42;;;;;;;41.2;45.6;;;;;;;9.6;54.3;98210;;;;
2022/04/19 10:40:42;;;;;;;13;17;;;;;;;9.8;54.6;98220;;;;
2022/04/19 10:51:42;;;;;;;13;17;;;;;;;9.3;55.2;98220;;;;
2022/04/19 11:02:43;;;;;;;8.7;12.5;;;;;;;9.6;54;98230;;;;
2022/04/19 11:13:43;;;;;;;8.7;12.5;;;;;;;9.7;50.4;98230;;;;
2022/04/19 11:23:42;;;;;;;8.7;12.5;;;;;;;10;50.3;98240;;;;
2022/04/19 11:34:42;;;;;;;7.3;10;;;;;;;10.3;49.6;98240;;;;
2022/04/19 11:55:42;;;;;;;7.3;10;;;;;;;11.5;47.1;98230;;;;
2022/04/19 12:05:42;;;;;;;7.2;11.6;;;;;;;11.3;46.9;98230;;;;
2022/04/19 12:16:44;;;;;;;7.2;11.6;;;;;;;10.3;48.7;98240;;;;
2022/04/19 12:26:42;;;;;;;7.2;11.6;;;;;;;10.4;47.2;98230;;;;
2022/04/19 12:37:42;;;;;;;8;11;;;;;;;10.1;48.2;98230;;;;
2022/04/19 12:48:43;;;;;;;8;11;;;;;;;10.9;48.1;98230;;;;
2022/04/19 12:58:42;;;;;;;8;11;;;;;;;10.9;48.5;98230;;;;
2022/04/19 13:19:42;;;;;;;7.3;9;;;;;;;11.2;44.8;98220;;;;
2022/04/19 13:29:42;;;;;;;7.3;9;;;;;;;11;45.9;98220;;;;
2022/04/19 13:40:42;;;;;;;6.3;10.4;;;;;;;11.4;45;98210;;;;
2022/04/19 13:51:42;;;;;;;6.3;10.4;;;;;;;11.2;45.3;98220;;;;
2022/04/19 14:02:42;;;;;;;7;12.2;;;;;;;10.5;47.5;98230;;;;
2022/04/19 14:12:42;;;;;;;7;12.2;;;;;;;10;46.8;98240;;;;
2022/04/19 14:22:42;;;;;;;7;12.2;;;;;;;9.9;47.9;98240;;;;
2022/04/19 14:33:46;;;;;;;8.1;10.3;;;;;;;9.9;47.8;98250;;;;
2022/04/19 14:43:42;;;;;;;8.1;10.3;;;;;;;10;47.8;98260;;;;
2022/04/19 14:53:42;;;;;;;8.1;10.3;;;;;;;11;44.6;98260;;;;
2022/04/19 15:03:42;;;;;;;7.9;10.7;;;;;;;12.1;43.2;98260;;;;
2022/04/19 15:14:42;;;;;;;7.9;10.7;;;;;;;13;43.1;98270;;;;
2022/04/19 15:25:42;;;;;;;7.9;10.7;;;;;;;12.6;43;98280;;;;
2022/04/19 15:35:42;;;;;;;7.8;10.8;;;;;;;10.8;46.6;98280;;;;
2022/04/19 15:46:42;;;;;;;7.8;10.8;;;;;;;10;47.5;98280;;;;
2022/04/19 15:56:42;;;;;;;7.8;10.8;;;;;;;9.8;47.5;98280;;;;
2022/04/19 16:07:42;;;;;;;10.8;14.5;;;;;;;10.9;46.4;98290;;;;
2022/04/19 16:28:44;;;;;;;10.8;14.5;;;;;;;10;48;98300;;;;
2022/04/19 16:38:42;;;;;;;10;14.4;;;;;;;9.6;49.1;98310;;;;
2022/04/19 16:49:42;;;;;;;10;14.4;;;;;;;9;49.7;98320;;;;
2022/04/19 16:59:42;;;;;;;10;14.4;;;;;;;8.8;50.3;98330;;;;
2022/04/19 17:09:42;;;;;;;11.4;16.2;;;;;;;8.4;51.1;98340;;;;
2022/04/19 17:19:42;;;;;;;11.4;16.2;;;;;;;8;52.3;98350;;;;
2022/04/19 17:29:43;;;;;;;11.4;16.2;;;;;;;7.5;55.2;98370;;;;
2022/04/19 17:40:42;;;;;;;8.5;13.2;;;;;;;7.2;56.8;98390;;;;
2022/04/19 18:01:43;;;;;;;20.4;28.8;;;;;;;6.5;60;98410;;;;
2022/04/19 18:11:42;;;;;;;20.4;28.8;;;;;;;6.1;60;98420;;;;
2022/04/19 18:33:42;;;;;;;32.3;49.6;;;;;;;5.4;62.5;98450;;;;
2022/04/19 18:43:43;;;;;;;32.3;49.6;;;;;;;5.1;63.4;98460;;;;
2022/04/19 18:54:42;;;;;;;32.3;49.6;;;;;;;4.9;64.4;98460;;;;
2022/04/19 19:05:43;;;;;;;23.7;33.5;;;;;;;4.6;64.7;98470;;;;
2022/04/19 19:16:42;;;;;;;23.7;33.5;;;;;;;4.4;66.4;98480;;;;
2022/04/19 19:26:42;;;;;;;23.7;33.5;;;;;;;4.1;65.8;98490;;;;
2022/04/19 19:36:44;;;;;;;21.3;30.9;;;;;;;3.9;66.9;98490;;;;
2022/04/19 19:47:42;;;;;;;21.3;30.9;;;;;;;3.6;66.4;98500;;;;
2022/04/19 19:57:42;;;;;;;21.3;30.9;;;;;;;3.4;66.9;98500;;;;
2022/04/19 20:07:42;;;;;;;59.1;113.2;;;;;;;3.2;67.8;98510;;;;
2022/04/19 20:17:43;;;;;;;59.1;113.2;;;;;;;3.1;68.2;98510;;;;
2022/04/19 20:28:42;;;;;;;59.1;113.2;;;;;;;2.9;68.6;98520;;;;
2022/04/19 20:38:43;;;;;;;11.5;16.8;;;;;;;2.9;69.6;98520;;;;
2022/04/19 20:50:15;;;;;;;11.5;16.8;;;;;;;2.8;69.6;98520;;;;
2022/04/19 20:59:43;;;;;;;11.5;16.8;;;;;;;2.8;69.6;98530;;;;
2022/04/19 21:09:43;;;;;;;10.7;15.7;;;;;;;3;69.1;98540;;;;
2022/04/19 21:19:42;;;;;;;10.7;15.7;;;;;;;3.1;69.2;98540;;;;
2022/04/19 21:29:44;;;;;;;10.7;15.7;;;;;;;3.2;70;98540;;;;
2022/04/19 21:40:42;;;;;;;11.9;16.5;;;;;;;3.2;69.7;98540;;;;
2022/04/19 21:51:42;;;;;;;11.9;16.5;;;;;;;3.1;69.4;98540;;;;
2022/04/19 22:01:42;;;;;;;15.7;22.1;;;;;;;3;69.7;98540;;;;
2022/04/19 22:11:42;;;;;;;15.7;22.1;;;;;;;2.9;69.7;98540;;;;
2022/04/19 22:22:42;;;;;;;15.7;22.1;;;;;;;2.9;70.9;98540;;;;
2022/04/19 22:33:42;;;;;;;15.9;25.9;;;;;;;2.8;71.7;98540;;;;
2022/04/19 22:43:42;;;;;;;15.9;25.9;;;;;;;2.8;71.5;98530;;;;
2022/04/19 23:04:43;;;;;;;22.9;33.4;;;;;;;2.1;72.9;98530;;;;
2022/04/19 23:14:42;;;;;;;22.9;33.4;;;;;;;1.9;74.1;98530;;;;
2022/04/19 23:25:42;;;;;;;22.9;33.4;;;;;;;1.6;75.1;98520;;;;
2022/04/19 23:35:42;;;;;;;23.7;37.8;;;;;;;1.3;74.4;98520;;;;
2022/04/19 23:46:42;;;;;;;23.7;37.8;;;;;;;1.1;74.6;98510;;;;
2022/04/19 23:56:42;;;;;;;23.7;37.8;;;;;;;0.9;76.2;98500;;;;
